createdAt,value
2017-07-24T11:13:13.407Z,3.30
2017-07-24T11:15:43.976Z,3.00
2017-07-24T11:18:23.565Z,3.10
2017-07-24T11:20:56.207Z,3.17
2017-07-24T11:23:27.151Z,2.47
2017-07-24T11:26:06.415Z,2.70
2017-07-24T11:28:36.942Z,2.70
2017-07-24T11:31:14.449Z,2.90
2017-07-24T11:33:53.995Z,2.97
2017-07-24T11:36:33.101Z,2.40
2017-07-24T11:39:05.707Z,2.40
2017-07-24T11:41:36.987Z,2.77
2017-07-24T11:44:17.746Z,2.10
2017-07-24T11:46:56.358Z,2.30
2017-07-24T11:49:36.973Z,2.60
2017-07-24T11:52:15.804Z,2.60
2017-07-24T11:54:55.462Z,2.40
2017-07-24T11:57:34.273Z,2.50
2017-07-24T12:00:14.865Z,3.20
2017-07-24T12:02:53.149Z,3.33
2017-07-24T12:05:31.425Z,2.17
2017-07-24T12:08:09.539Z,2.40
2017-07-24T12:10:48.392Z,2.40
2017-07-24T12:13:28.823Z,2.73
2017-07-24T12:16:13.437Z,2.30
2017-07-24T12:18:53.297Z,2.03
2017-07-24T12:21:38.308Z,1.97
2017-07-24T12:24:18.031Z,2.23
2017-07-24T12:26:58.767Z,2.53
2017-07-24T12:29:38.785Z,1.77
2017-07-24T12:32:19.734Z,2.67
2017-07-24T12:34:59.681Z,2.40
2017-07-24T12:37:38.455Z,3.23
2017-07-24T12:40:17.065Z,3.20
2017-07-24T12:42:54.796Z,2.37
2017-07-24T12:45:34.343Z,2.53
2017-07-24T12:48:14.673Z,2.23
2017-07-24T12:50:52.269Z,2.80
2017-07-24T12:53:30.941Z,2.17
2017-07-24T12:56:09.204Z,2.47
2017-07-24T12:58:49.032Z,2.10
2017-07-24T13:01:26.874Z,2.27
2017-07-24T13:04:05.736Z,2.53
2017-07-24T13:06:44.255Z,2.80
2017-07-24T13:09:23.951Z,2.27
2017-07-24T13:12:02.675Z,2.60
2017-07-24T13:14:42.836Z,2.30
2017-07-24T13:17:18.324Z,2.20
2017-07-24T13:19:59.432Z,1.87
2017-07-24T13:22:29.965Z,1.97
2017-07-24T13:25:00.904Z,2.10
2017-07-24T13:27:31.333Z,2.50
2017-07-24T13:30:02.173Z,2.47
2017-07-24T13:32:40.267Z,2.30
2017-07-24T13:35:10.786Z,2.60
2017-07-24T13:37:41.455Z,2.20
2017-07-24T13:40:12.204Z,1.90
2017-07-24T13:42:42.726Z,2.10
2017-07-24T13:45:20.879Z,2.00
2017-07-24T13:47:56.639Z,2.37
2017-07-24T13:50:34.785Z,2.43
2017-07-24T13:53:12.874Z,2.07
2017-07-24T13:55:51.902Z,2.60
2017-07-24T13:58:30.277Z,1.50
2017-07-24T14:01:08.765Z,2.20
2017-07-24T14:03:46.005Z,2.30
2017-07-24T14:06:22.662Z,2.20
2017-07-24T14:09:01.937Z,2.80
2017-07-24T14:11:42.146Z,2.60
2017-07-24T14:14:12.558Z,2.40
2017-07-24T14:16:43.455Z,1.90
2017-07-24T14:19:21.061Z,1.83
2017-07-24T14:21:58.908Z,2.83
2017-07-24T14:24:29.075Z,2.00
2017-07-24T14:26:59.860Z,1.83
2017-07-24T14:29:30.284Z,2.10
2017-07-24T14:32:01.485Z,2.00
2017-07-24T14:34:41.574Z,2.03
2017-07-24T14:37:12.137Z,2.60
2017-07-24T14:39:50.899Z,2.13
2017-07-24T14:42:30.542Z,2.80
2017-07-24T14:45:07.479Z,2.37
2017-07-24T14:47:47.658Z,2.37
2017-07-24T14:50:26.044Z,3.00
2017-07-24T14:53:05.119Z,4.60
2017-07-24T14:55:44.517Z,4.23
2017-07-24T14:58:24.438Z,4.30
2017-07-24T15:01:03.719Z,4.67
2017-07-24T15:03:42.128Z,4.00
2017-07-24T15:06:21.384Z,4.43
2017-07-24T15:09:00.153Z,5.07
2017-07-24T15:11:38.915Z,5.43
2017-07-24T15:14:20.867Z,4.33
2017-07-24T15:17:00.616Z,3.60
2017-07-24T15:19:38.973Z,3.33
2017-07-24T15:22:16.068Z,3.83
2017-07-24T15:24:46.691Z,3.20
2017-07-24T15:27:24.899Z,3.60
2017-07-24T15:30:04.976Z,3.63
2017-07-24T15:32:43.256Z,3.23
2017-07-24T15:35:21.175Z,3.33
2017-07-24T15:38:00.009Z,3.40
2017-07-24T15:40:38.939Z,3.10
2017-07-24T15:43:15.677Z,3.23
2017-07-24T15:45:56.510Z,3.30
2017-07-24T15:48:34.875Z,3.20
2017-07-24T15:51:13.798Z,2.90
2017-07-24T15:53:53.492Z,3.00
2017-07-24T15:56:34.158Z,3.17
2017-07-24T15:59:13.258Z,2.73
2017-07-24T16:01:51.545Z,3.47
2017-07-24T16:04:30.145Z,3.23
2017-07-24T16:07:08.493Z,2.23
2017-07-24T16:09:41.467Z,2.47
2017-07-24T16:12:21.219Z,2.93
2017-07-24T16:14:59.708Z,2.10
2017-07-24T16:17:39.422Z,2.50
2017-07-24T16:20:17.737Z,1.77
2017-07-24T16:22:56.432Z,2.30
2017-07-24T16:25:35.781Z,2.27
2017-07-24T16:28:15.068Z,2.00
2017-07-24T16:30:53.796Z,3.17
2017-07-24T16:33:24.329Z,2.27
2017-07-24T16:36:02.858Z,2.73
2017-07-24T16:38:42.602Z,2.60
2017-07-24T16:41:20.759Z,2.57
2017-07-24T16:44:00.240Z,2.57
2017-07-24T16:46:39.372Z,2.33
2017-07-24T16:49:19.617Z,3.17
2017-07-24T16:51:57.844Z,2.50
2017-07-24T16:54:35.777Z,2.17
2017-07-24T16:57:13.717Z,2.30
2017-07-24T16:59:53.000Z,3.30
2017-07-24T17:02:32.015Z,2.53
2017-07-24T17:05:11.497Z,3.33
2017-07-24T17:07:46.427Z,3.20
2017-07-24T17:10:26.678Z,2.77
2017-07-24T17:13:02.030Z,2.27
2017-07-24T17:15:33.259Z,2.50
2017-07-24T17:18:03.895Z,2.87
2017-07-24T17:20:43.438Z,2.00
2017-07-24T17:23:19.075Z,2.47
2017-07-24T17:25:58.679Z,2.87
2017-07-24T17:28:37.332Z,3.67
2017-07-24T17:31:17.811Z,2.33
2017-07-24T17:33:58.374Z,2.77
2017-07-24T17:36:38.055Z,2.43
2017-07-24T17:39:16.582Z,2.30
2017-07-24T17:41:58.225Z,2.83
2017-07-24T17:44:36.995Z,1.67
2017-07-24T17:47:16.390Z,2.17
2017-07-24T17:49:55.598Z,2.70
2017-07-24T17:52:35.041Z,2.40
2017-07-24T17:55:13.564Z,2.47
2017-07-24T17:57:53.392Z,2.17
2017-07-24T18:00:32.025Z,2.40
2017-07-24T18:03:10.183Z,2.47
2017-07-24T18:05:49.180Z,2.73
2017-07-24T18:08:29.623Z,2.60
2017-07-24T18:11:09.423Z,1.93
2017-07-24T18:13:47.017Z,3.10
2017-07-24T18:16:25.379Z,2.17
2017-07-24T18:19:05.207Z,2.37
2017-07-24T18:21:35.832Z,2.97
2017-07-24T18:24:16.585Z,2.80
2017-07-24T18:26:55.391Z,2.20
2017-07-24T18:29:26.053Z,2.53
2017-07-24T18:32:03.998Z,2.20
2017-07-24T18:34:43.467Z,2.93
2017-07-24T18:37:21.284Z,1.93
2017-07-24T18:40:00.817Z,2.20
2017-07-24T18:42:39.229Z,2.37
2017-07-24T18:45:20.846Z,2.30
2017-07-24T18:47:51.175Z,3.10
2017-07-24T18:50:21.881Z,2.07
2017-07-24T18:53:00.510Z,2.70
2017-07-24T18:55:42.092Z,2.30
2017-07-24T18:58:20.927Z,2.30
2017-07-24T19:00:51.849Z,2.20
2017-07-24T19:03:28.292Z,2.53
2017-07-24T19:06:08.080Z,2.20
2017-07-24T19:08:46.633Z,2.70
2017-07-24T19:11:25.963Z,2.30
2017-07-24T19:14:05.354Z,2.27
2017-07-24T19:16:41.955Z,1.80
2017-07-24T19:19:19.156Z,2.30
2017-07-24T19:21:57.707Z,2.50
2017-07-24T19:24:28.351Z,2.70
2017-07-24T19:27:07.841Z,2.97
2017-07-24T19:29:45.187Z,2.10
2017-07-24T19:32:25.296Z,1.80
2017-07-24T19:35:04.617Z,2.30
2017-07-24T19:37:47.856Z,2.30
2017-07-24T19:40:19.943Z,1.93
2017-07-24T19:42:50.714Z,2.40
2017-07-24T19:45:29.192Z,2.67
2017-07-24T19:47:59.887Z,2.50
2017-07-24T19:50:35.291Z,2.37
2017-07-24T19:53:16.119Z,2.47
2017-07-24T19:55:56.431Z,2.20
2017-07-24T19:58:35.990Z,2.30
2017-07-24T20:01:13.889Z,2.67
2017-07-24T20:03:52.174Z,2.20
2017-07-24T20:06:30.672Z,2.50
2017-07-24T20:09:10.617Z,2.93
2017-07-24T20:11:47.407Z,2.53
2017-07-24T20:14:17.921Z,2.20
2017-07-24T20:16:48.233Z,2.83
2017-07-24T20:19:18.865Z,2.50
2017-07-24T20:21:50.079Z,2.30
2017-07-24T20:24:21.709Z,2.70
2017-07-24T20:27:00.999Z,2.83
2017-07-24T20:29:39.397Z,2.80
